createdAt,value
2018-12-16T00:01:40.757Z,29.85
2018-12-16T00:04:09.612Z,25.70
2018-12-16T00:06:38.843Z,25.35
2018-12-16T00:09:08.863Z,28.75
2018-12-16T00:11:38.496Z,28.30
2018-12-16T00:14:07.464Z,24.07
2018-12-16T00:16:36.697Z,25.85
2018-12-16T00:19:05.560Z,29.87
2018-12-16T00:21:34.831Z,26.85
2018-12-16T00:24:03.914Z,25.40
2018-12-16T00:26:50.404Z,26.62
2018-12-16T00:29:19.787Z,30.27
2018-12-16T00:31:48.757Z,29.23
2018-12-16T00:34:17.802Z,29.42
2018-12-16T00:36:46.745Z,26.27
2018-12-16T00:39:16.175Z,29.70
2018-12-16T00:41:45.248Z,32.42
2018-12-16T00:44:14.182Z,25.55
2018-12-16T00:46:43.107Z,31.65
2018-12-16T00:49:12.736Z,28.98
2018-12-16T00:51:41.647Z,30.27
2018-12-16T00:54:10.554Z,27.13
2018-12-16T00:56:39.820Z,27.22
2018-12-16T00:59:08.824Z,29.53
2018-12-16T01:01:37.789Z,32.90
2018-12-16T01:04:07.474Z,28.38
2018-12-16T01:06:36.774Z,26.90
2018-12-16T01:09:08.017Z,28.65
2018-12-16T01:11:37.033Z,29.45
2018-12-16T01:14:06.304Z,32.48
2018-12-16T01:16:35.568Z,32.17
2018-12-16T01:19:04.675Z,31.73
2018-12-16T01:21:33.612Z,30.15
2018-12-16T01:24:02.709Z,35.00
2018-12-16T01:26:31.687Z,34.98
2018-12-16T01:29:00.701Z,35.98
2018-12-16T01:31:30.576Z,36.35
2018-12-16T01:33:59.498Z,34.15
2018-12-16T01:36:29.719Z,30.85
2018-12-16T01:38:58.932Z,36.33
2018-12-16T01:41:27.908Z,34.63
2018-12-16T01:43:56.851Z,32.48
2018-12-16T01:46:25.722Z,37.20
2018-12-16T01:48:54.729Z,36.33
2018-12-16T01:51:23.741Z,33.48
2018-12-16T01:53:52.697Z,41.23
2018-12-16T01:56:21.873Z,35.85
2018-12-16T01:58:50.758Z,34.58
2018-12-16T02:01:19.830Z,34.05
2018-12-16T02:03:48.709Z,34.63
2018-12-16T02:06:17.689Z,34.60
2018-12-16T02:08:46.810Z,34.50
2018-12-16T02:11:16.362Z,39.15
2018-12-16T02:13:45.324Z,38.05
2018-12-16T02:16:14.267Z,32.90
2018-12-16T02:18:43.221Z,29.90
2018-12-16T02:21:12.129Z,35.55
2018-12-16T02:23:41.105Z,31.55
2018-12-16T02:26:10.107Z,31.42
2018-12-16T02:28:39.079Z,31.65
2018-12-16T02:31:08.026Z,27.25
2018-12-16T02:33:36.914Z,32.98
2018-12-16T02:36:05.957Z,34.30
2018-12-16T02:38:34.918Z,30.23
2018-12-16T02:41:03.862Z,33.67
2018-12-16T02:43:32.758Z,33.13
2018-12-16T02:46:01.728Z,31.62
2018-12-16T02:48:30.860Z,34.13
2018-12-16T02:50:59.939Z,32.98
2018-12-16T02:53:28.822Z,41.30
2018-12-16T02:55:57.958Z,33.40
2018-12-16T02:58:27.123Z,34.20
2018-12-16T03:00:56.055Z,35.55
2018-12-16T03:03:25.096Z,38.40
2018-12-16T03:05:54.080Z,32.93
2018-12-16T03:08:22.945Z,31.70
2018-12-16T03:10:51.891Z,34.70
2018-12-16T03:13:20.825Z,37.67
2018-12-16T03:15:49.837Z,36.13
2018-12-16T03:18:18.747Z,32.95
2018-12-16T03:20:47.658Z,33.35
2018-12-16T03:23:16.710Z,36.60
2018-12-16T03:25:45.712Z,37.53
2018-12-16T03:28:15.672Z,32.08
2018-12-16T03:30:45.016Z,29.82
2018-12-16T03:33:13.934Z,31.80
2018-12-16T03:35:42.806Z,35.55
2018-12-16T03:38:11.932Z,31.48
2018-12-16T03:40:40.996Z,38.53
2018-12-16T03:43:09.932Z,35.38
2018-12-16T03:45:39.269Z,35.30
2018-12-16T03:48:10.271Z,35.43
2018-12-16T03:50:39.583Z,33.02
2018-12-16T03:53:08.578Z,37.13
2018-12-16T03:55:37.886Z,32.60
2018-12-16T03:58:06.842Z,36.68
2018-12-16T04:00:36.257Z,35.78
2018-12-16T04:03:05.196Z,32.58
2018-12-16T04:05:34.457Z,32.63
2018-12-16T04:08:03.489Z,34.35
2018-12-16T04:10:32.417Z,35.23
2018-12-16T04:13:01.756Z,31.17
2018-12-16T04:15:30.694Z,35.28
2018-12-16T04:17:59.738Z,35.40
2018-12-16T04:20:28.702Z,31.62
2018-12-16T04:22:57.692Z,32.60
2018-12-16T04:25:26.630Z,35.50
2018-12-16T04:27:55.578Z,38.48
2018-12-16T04:30:24.854Z,31.73
2018-12-16T04:32:53.841Z,32.25
2018-12-16T04:35:22.776Z,35.08
2018-12-16T04:37:51.643Z,35.38
2018-12-16T04:40:20.708Z,37.40
2018-12-16T04:42:49.700Z,33.35
2018-12-16T04:45:18.684Z,35.10
2018-12-16T04:47:47.842Z,34.18
2018-12-16T04:50:16.804Z,35.55
2018-12-16T04:52:45.810Z,38.67
2018-12-16T04:55:15.021Z,39.30
2018-12-16T04:57:44.269Z,43.00
2018-12-16T05:00:13.341Z,38.80
2018-12-16T05:02:42.500Z,34.38
2018-12-16T05:05:11.481Z,43.83
2018-12-16T05:07:40.423Z,42.30
2018-12-16T05:10:27.263Z,39.05
2018-12-16T05:12:56.691Z,38.15
2018-12-16T05:15:25.763Z,42.58
2018-12-16T05:17:54.759Z,40.73
2018-12-16T05:20:23.762Z,39.92
2018-12-16T05:22:52.821Z,36.13
2018-12-16T05:25:22.112Z,39.42
2018-12-16T05:27:51.543Z,38.23
2018-12-16T05:30:20.642Z,41.30
2018-12-16T05:32:49.501Z,42.75
2018-12-16T05:35:18.540Z,43.58
2018-12-16T05:37:47.411Z,40.52
2018-12-16T05:40:16.545Z,40.00
2018-12-16T05:42:45.508Z,44.35
2018-12-16T05:45:14.691Z,39.15
2018-12-16T05:47:43.623Z,41.95
2018-12-16T05:50:13.197Z,44.67
2018-12-16T05:52:43.191Z,46.18
2018-12-16T05:55:12.405Z,40.52
2018-12-16T05:57:41.364Z,40.83
2018-12-16T06:00:11.178Z,41.18
2018-12-16T06:02:40.098Z,40.88
2018-12-16T06:05:08.942Z,41.18
2018-12-16T06:07:37.934Z,45.38
2018-12-16T06:10:07.452Z,37.25
2018-12-16T06:12:36.468Z,39.77
2018-12-16T06:15:06.550Z,43.00
2018-12-16T06:17:35.470Z,40.83
2018-12-16T06:20:05.075Z,41.98
2018-12-16T06:22:34.377Z,39.40
2018-12-16T06:25:03.860Z,43.02
2018-12-16T06:27:33.170Z,36.30
2018-12-16T06:30:02.223Z,39.58
2018-12-16T06:32:31.268Z,37.33
2018-12-16T06:35:00.289Z,38.92
2018-12-16T06:37:29.334Z,39.05
2018-12-16T06:39:58.197Z,42.13
2018-12-16T06:42:27.125Z,36.83
2018-12-16T06:44:57.114Z,45.08
2018-12-16T06:47:26.226Z,43.95
2018-12-16T06:49:55.214Z,39.27
2018-12-16T06:52:24.231Z,42.25
2018-12-16T06:54:53.651Z,38.73
2018-12-16T06:57:22.780Z,35.95
2018-12-16T06:59:51.645Z,39.40
2018-12-16T07:02:20.618Z,42.78
2018-12-16T07:04:49.647Z,39.83
2018-12-16T07:07:18.564Z,39.27
2018-12-16T07:09:47.572Z,40.43
2018-12-16T07:12:16.523Z,39.50
2018-12-16T07:14:45.769Z,38.45
2018-12-16T07:17:15.575Z,40.83
2018-12-16T07:19:44.506Z,40.23
2018-12-16T07:22:13.471Z,41.28
2018-12-16T07:24:42.522Z,42.53
2018-12-16T07:27:11.712Z,41.55
2018-12-16T07:29:40.945Z,27.50
2018-12-16T07:32:10.005Z,35.65
2018-12-16T07:34:39.000Z,37.38
2018-12-16T07:37:07.919Z,39.83
2018-12-16T07:39:37.328Z,38.40
2018-12-16T07:42:06.235Z,39.33
2018-12-16T07:44:35.352Z,33.83
2018-12-16T07:47:04.299Z,35.23
2018-12-16T07:49:33.329Z,41.90
2018-12-16T07:52:02.252Z,36.00
2018-12-16T07:54:31.376Z,37.15
2018-12-16T07:57:00.310Z,38.20
2018-12-16T07:59:29.316Z,38.15
2018-12-16T08:01:58.622Z,39.65
2018-12-16T08:04:27.684Z,36.33
2018-12-16T08:06:56.763Z,37.08
2018-12-16T08:09:25.810Z,36.30
2018-12-16T08:11:54.780Z,35.20
2018-12-16T08:14:23.732Z,36.83
2018-12-16T08:16:53.623Z,32.97
2018-12-16T08:19:22.914Z,34.90
2018-12-16T08:21:52.414Z,32.13
2018-12-16T08:24:23.264Z,32.48
2018-12-16T08:26:52.618Z,34.05
2018-12-16T08:29:21.695Z,33.05
2018-12-16T08:31:50.621Z,34.25
2018-12-16T08:34:19.614Z,32.30
2018-12-16T08:36:48.643Z,37.00
2018-12-16T08:39:17.503Z,31.40
2018-12-16T08:41:46.451Z,31.30
2018-12-16T08:44:15.678Z,32.73
2018-12-16T08:46:44.669Z,43.58
2018-12-16T08:49:13.653Z,40.28
2018-12-16T08:51:42.619Z,31.82
2018-12-16T08:54:12.680Z,38.38
2018-12-16T08:56:42.012Z,31.77
2018-12-16T08:59:10.855Z,34.65
2018-12-16T09:01:40.138Z,36.77
2018-12-16T09:04:09.183Z,36.10
2018-12-16T09:06:38.098Z,40.88
2018-12-16T09:09:09.690Z,35.75
2018-12-16T09:11:38.906Z,37.95
2018-12-16T09:14:07.975Z,38.40
2018-12-16T09:16:36.906Z,34.27
2018-12-16T09:19:05.825Z,38.80
2018-12-16T09:21:34.973Z,37.25
2018-12-16T09:24:03.998Z,37.50
2018-12-16T09:26:33.006Z,35.03
2018-12-16T09:29:03.063Z,37.28
2018-12-16T09:31:32.465Z,36.77
2018-12-16T09:34:02.190Z,33.60
2018-12-16T09:36:31.064Z,33.37
2018-12-16T09:39:00.487Z,36.63
2018-12-16T09:41:29.446Z,39.53
2018-12-16T09:43:58.419Z,32.30
2018-12-16T09:46:27.439Z,32.93
2018-12-16T09:48:56.354Z,40.77
2018-12-16T09:51:25.352Z,40.23
2018-12-16T09:53:54.275Z,37.60
2018-12-16T09:56:23.170Z,34.67
2018-12-16T09:58:52.228Z,39.30
2018-12-16T10:01:21.102Z,34.87
2018-12-16T10:03:50.119Z,36.00
2018-12-16T10:06:19.159Z,38.90
2018-12-16T10:08:48.121Z,35.33
2018-12-16T10:11:17.078Z,29.10
2018-12-16T10:13:46.060Z,33.03
2018-12-16T10:16:15.015Z,34.50
2018-12-16T10:18:43.963Z,36.17
2018-12-16T10:21:13.735Z,33.33
2018-12-16T10:23:42.808Z,35.60
2018-12-16T10:26:12.015Z,35.57
2018-12-16T10:28:41.186Z,35.83
2018-12-16T10:31:11.101Z,36.43
2018-12-16T10:33:40.013Z,32.63
2018-12-16T10:36:08.867Z,36.83
2018-12-16T10:38:38.591Z,35.07
2018-12-16T10:41:07.713Z,30.37
2018-12-16T10:43:36.750Z,33.53
2018-12-16T10:46:05.701Z,30.87
2018-12-16T10:48:34.755Z,34.57
2018-12-16T10:51:03.602Z,33.40
2018-12-16T10:53:32.706Z,32.63
2018-12-16T10:56:01.584Z,32.90
2018-12-16T10:58:30.531Z,37.90
2018-12-16T11:01:05.068Z,35.70
2018-12-16T11:03:34.245Z,33.53
2018-12-16T11:06:03.513Z,36.37
2018-12-16T11:08:32.583Z,32.97
2018-12-16T11:11:01.495Z,34.77
2018-12-16T11:13:30.515Z,38.00
2018-12-16T11:15:59.521Z,33.03
2018-12-16T11:18:28.499Z,33.50
2018-12-16T11:20:57.435Z,33.70
2018-12-16T11:23:26.462Z,31.20
2018-12-16T11:25:56.883Z,38.20
2018-12-16T11:28:25.798Z,34.43
2018-12-16T11:30:54.726Z,36.33
2018-12-16T11:33:23.669Z,36.93
2018-12-16T11:35:52.898Z,30.87
2018-12-16T11:38:21.789Z,35.53
2018-12-16T11:40:51.017Z,35.17
2018-12-16T11:43:19.882Z,34.87
2018-12-16T11:45:48.846Z,35.03
2018-12-16T11:48:17.773Z,33.43
2018-12-16T11:50:47.022Z,37.90
2018-12-16T11:53:15.990Z,34.10
2018-12-16T11:55:45.086Z,33.83
2018-12-16T11:58:14.245Z,35.03
2018-12-16T12:00:43.377Z,32.30
2018-12-16T12:03:12.303Z,36.57
2018-12-16T12:05:41.286Z,35.40
2018-12-16T12:08:10.205Z,33.10
2018-12-16T12:10:39.132Z,34.37
2018-12-16T12:13:07.995Z,38.43
2018-12-16T12:15:36.909Z,35.10
2018-12-16T12:18:05.930Z,31.80
2018-12-16T12:20:34.911Z,32.57
2018-12-16T12:23:03.956Z,30.83
2018-12-16T12:25:32.857Z,34.80
2018-12-16T12:28:01.743Z,31.13
2018-12-16T12:30:31.075Z,28.77
2018-12-16T12:33:00.152Z,33.13
2018-12-16T12:35:29.122Z,29.97
2018-12-16T12:37:58.085Z,32.13
2018-12-16T12:40:27.393Z,31.07
2018-12-16T12:42:56.638Z,32.57
2018-12-16T12:45:25.692Z,30.20
2018-12-16T12:47:54.688Z,30.33
2018-12-16T12:50:23.628Z,33.70
2018-12-16T12:52:52.603Z,33.73
2018-12-16T12:55:26.820Z,31.60
2018-12-16T12:57:52.711Z,31.77
2018-12-16T13:00:22.206Z,33.40
2018-12-16T13:02:51.472Z,34.60
2018-12-16T13:05:20.386Z,31.97
2018-12-16T13:07:49.349Z,32.03
2018-12-16T13:10:18.330Z,35.93
2018-12-16T13:12:47.315Z,34.90
2018-12-16T13:15:16.325Z,27.83
2018-12-16T13:17:45.331Z,32.20
2018-12-16T13:20:14.450Z,29.83
2018-12-16T13:22:44.147Z,27.97
2018-12-16T13:25:33.952Z,30.20
2018-12-16T13:28:01.123Z,27.90
2018-12-16T13:30:30.473Z,28.07
2018-12-16T13:32:59.408Z,27.20
2018-12-16T13:35:28.275Z,29.20
2018-12-16T13:37:57.190Z,33.67
2018-12-16T13:40:26.064Z,27.53
2018-12-16T13:42:55.107Z,30.33
2018-12-16T13:45:24.103Z,27.50
2018-12-16T13:47:53.100Z,28.50
2018-12-16T13:50:21.975Z,28.60
2018-12-16T13:52:50.938Z,30.83
2018-12-16T13:55:19.873Z,30.90
2018-12-16T13:57:49.300Z,33.80
2018-12-16T14:00:18.205Z,33.20
2018-12-16T14:02:47.144Z,30.03
2018-12-16T14:05:16.009Z,27.03
2018-12-16T14:07:45.025Z,32.77
2018-12-16T14:10:14.181Z,30.60
2018-12-16T14:12:43.122Z,34.53
2018-12-16T14:15:12.129Z,31.70
2018-12-16T14:17:41.063Z,34.03
2018-12-16T14:20:10.963Z,29.47
2018-12-16T14:22:40.032Z,36.97
2018-12-16T14:25:09.155Z,29.43
2018-12-16T14:27:38.105Z,35.43
2018-12-16T14:30:09.939Z,32.60
2018-12-16T14:32:39.041Z,31.83
2018-12-16T14:35:10.470Z,31.23
2018-12-16T14:37:39.504Z,35.10
2018-12-16T14:40:10.084Z,32.67
2018-12-16T14:42:39.560Z,31.30
2018-12-16T14:45:10.495Z,33.97
2018-12-16T14:47:39.453Z,36.00
2018-12-16T14:50:10.554Z,33.77
2018-12-16T14:52:39.507Z,28.60
2018-12-16T14:55:09.084Z,33.07
2018-12-16T14:57:38.046Z,31.87
2018-12-16T15:00:10.427Z,34.33
2018-12-16T15:02:39.573Z,35.37
2018-12-16T15:05:09.338Z,35.00
2018-12-16T15:07:38.355Z,33.83
2018-12-16T15:10:10.366Z,34.10
2018-12-16T15:12:39.382Z,30.90
2018-12-16T15:15:13.314Z,32.40
2018-12-16T15:17:42.860Z,32.80
2018-12-16T15:20:12.219Z,37.80
2018-12-16T15:22:41.351Z,38.83
2018-12-16T15:25:10.315Z,40.03
2018-12-16T15:27:39.231Z,33.07
2018-12-16T15:30:10.081Z,31.33
2018-12-16T15:32:39.249Z,32.53
2018-12-16T15:35:08.412Z,32.50
2018-12-16T15:37:37.388Z,32.97
2018-12-16T15:40:08.070Z,35.60
2018-12-16T15:42:37.027Z,34.97
2018-12-16T15:45:09.540Z,34.27
2018-12-16T15:47:38.582Z,34.47
2018-12-16T15:50:09.187Z,35.93
2018-12-16T15:52:38.219Z,35.00
2018-12-16T15:55:10.139Z,36.97
2018-12-16T15:57:39.219Z,29.73
2018-12-16T16:00:08.717Z,36.10
2018-12-16T16:02:37.803Z,35.50
2018-12-16T16:05:07.394Z,33.00
2018-12-16T16:07:36.387Z,34.70
2018-12-16T16:10:07.066Z,31.53
2018-12-16T16:12:35.976Z,29.07
2018-12-16T16:15:05.728Z,31.97
2018-12-16T16:17:34.596Z,31.50
2018-12-16T16:20:04.120Z,35.57
2018-12-16T16:22:33.032Z,34.93
2018-12-16T16:25:02.353Z,31.27
2018-12-16T16:27:31.578Z,36.67
2018-12-16T16:30:00.919Z,35.13
2018-12-16T16:32:29.895Z,31.83
2018-12-16T16:34:59.181Z,33.43
2018-12-16T16:37:28.152Z,34.10
2018-12-16T16:39:57.489Z,36.87
2018-12-16T16:42:26.428Z,36.73
2018-12-16T16:44:55.708Z,40.00
2018-12-16T16:47:24.630Z,36.17
2018-12-16T16:49:53.794Z,35.13
2018-12-16T16:52:22.756Z,35.97
2018-12-16T16:54:51.699Z,34.53
2018-12-16T16:57:20.585Z,34.53
2018-12-16T16:59:49.519Z,40.80
2018-12-16T17:02:18.382Z,31.60
2018-12-16T17:04:47.636Z,37.77
2018-12-16T17:07:16.607Z,33.00
2018-12-16T17:09:45.567Z,33.57
2018-12-16T17:12:14.482Z,40.53
2018-12-16T17:14:43.751Z,38.33
2018-12-16T17:17:12.719Z,38.57
2018-12-16T17:19:41.671Z,35.80
2018-12-16T17:22:14.913Z,39.17
2018-12-16T17:24:46.975Z,35.87
2018-12-16T17:27:19.163Z,38.27
2018-12-16T17:29:52.164Z,39.83
2018-12-16T17:32:25.156Z,36.37
2018-12-16T17:34:58.629Z,39.87
2018-12-16T17:37:31.657Z,40.67
2018-12-16T17:40:04.840Z,35.50
2018-12-16T17:42:37.882Z,38.53
2018-12-16T17:45:13.001Z,44.97
2018-12-16T17:47:44.925Z,40.90
2018-12-16T17:50:17.145Z,37.57
2018-12-16T17:52:48.973Z,37.80
2018-12-16T17:55:21.295Z,38.53
2018-12-16T17:57:53.283Z,41.93
2018-12-16T18:00:25.785Z,42.10
2018-12-16T18:03:00.624Z,42.23
2018-12-16T18:05:33.016Z,37.73
2018-12-16T18:08:05.156Z,38.47
2018-12-16T18:10:34.621Z,41.50
2018-12-16T18:13:03.583Z,36.30
2018-12-16T18:15:36.299Z,41.10
2018-12-16T18:18:05.506Z,42.33
2018-12-16T18:20:34.427Z,44.80
2018-12-16T18:23:03.738Z,43.67
2018-12-16T18:25:32.855Z,43.97
2018-12-16T18:28:01.806Z,38.13
2018-12-16T18:30:31.093Z,41.37
2018-12-16T18:33:00.669Z,43.57
2018-12-16T18:35:29.931Z,39.43
2018-12-16T18:37:59.034Z,37.50
2018-12-16T18:40:28.079Z,40.07
2018-12-16T18:42:56.978Z,41.90
2018-12-16T18:45:26.313Z,40.27
2018-12-16T18:47:55.201Z,41.97
2018-12-16T18:50:24.551Z,40.67
2018-12-16T18:52:53.802Z,42.37
2018-12-16T18:55:22.738Z,47.03
2018-12-16T18:57:51.754Z,41.70
2018-12-16T19:00:20.647Z,40.47
2018-12-16T19:02:51.762Z,37.43
2018-12-16T19:05:21.127Z,40.63
2018-12-16T19:07:50.110Z,44.20
2018-12-16T19:10:19.074Z,43.47
2018-12-16T19:12:47.945Z,46.07
2018-12-16T19:15:17.995Z,41.57
2018-12-16T19:17:46.929Z,44.37
2018-12-16T19:20:15.815Z,44.17
2018-12-16T19:22:44.737Z,46.30
2018-12-16T19:25:13.679Z,45.00
2018-12-16T19:27:43.468Z,45.13
2018-12-16T19:30:13.013Z,44.47
2018-12-16T19:32:41.972Z,45.87
2018-12-16T19:35:10.978Z,42.27
2018-12-16T19:37:39.932Z,47.00
2018-12-16T19:40:09.074Z,41.57
2018-12-16T19:42:37.971Z,40.07
2018-12-16T19:45:07.160Z,47.47
2018-12-16T19:47:36.087Z,47.17
2018-12-16T19:50:05.914Z,47.30
2018-12-16T19:52:34.916Z,44.63
2018-12-16T19:55:04.559Z,45.00
2018-12-16T19:57:33.495Z,48.47
2018-12-16T20:00:02.958Z,45.50
2018-12-16T20:02:31.882Z,43.33
2018-12-16T20:05:04.284Z,44.47
2018-12-16T20:07:34.000Z,45.67
2018-12-16T20:10:03.367Z,47.93
2018-12-16T20:12:32.356Z,40.10
2018-12-16T20:15:01.106Z,44.60
2018-12-16T20:17:30.162Z,45.53
2018-12-16T20:19:59.050Z,48.10
2018-12-16T20:22:28.258Z,48.13
2018-12-16T20:24:57.124Z,44.93
2018-12-16T20:27:26.111Z,51.57
2018-12-16T20:29:54.960Z,48.27
2018-12-16T20:32:23.878Z,45.43
2018-12-16T20:34:52.769Z,48.77
2018-12-16T20:37:21.790Z,46.17
2018-12-16T20:39:50.843Z,56.37
2018-12-16T20:42:19.764Z,47.00
2018-12-16T20:44:48.730Z,47.23
2018-12-16T20:47:17.639Z,54.43
2018-12-16T20:49:46.548Z,46.07
2018-12-16T20:52:15.650Z,51.40
2018-12-16T20:54:45.011Z,48.10
2018-12-16T20:57:18.851Z,55.57
2018-12-16T20:59:45.538Z,52.83
2018-12-16T21:02:14.458Z,49.23
2018-12-16T21:04:43.721Z,50.07
2018-12-16T21:07:12.734Z,50.53
2018-12-16T21:09:41.676Z,50.80
2018-12-16T21:12:16.149Z,50.17
2018-12-16T21:14:50.690Z,52.23
2018-12-16T21:17:25.115Z,47.13
2018-12-16T21:19:54.336Z,55.47
2018-12-16T21:22:23.243Z,45.73
2018-12-16T21:24:52.350Z,47.77
2018-12-16T21:27:25.954Z,51.73
2018-12-16T21:29:52.915Z,47.03
2018-12-16T21:32:22.477Z,47.43
2018-12-16T21:34:51.811Z,47.87
2018-12-16T21:37:20.795Z,47.03
2018-12-16T21:39:50.026Z,48.97
2018-12-16T21:42:18.942Z,49.97
2018-12-16T21:44:48.226Z,50.00
2018-12-16T21:47:17.205Z,48.63
2018-12-16T21:49:46.267Z,49.47
2018-12-16T21:52:15.282Z,42.37
2018-12-16T21:54:44.352Z,46.77
2018-12-16T21:57:13.360Z,46.93
2018-12-16T21:59:42.618Z,47.13
2018-12-16T22:02:11.663Z,45.80
2018-12-16T22:04:40.703Z,46.83
2018-12-16T22:07:09.967Z,43.23
2018-12-16T22:09:38.904Z,46.57
2018-12-16T22:12:07.908Z,46.40
2018-12-16T22:14:37.034Z,49.50
2018-12-16T22:17:05.875Z,46.23
2018-12-16T22:19:34.829Z,42.87
2018-12-16T22:22:03.715Z,49.53
2018-12-16T22:24:32.938Z,45.30
2018-12-16T22:27:03.338Z,42.63
2018-12-16T22:29:33.672Z,45.40
2018-12-16T22:32:04.081Z,45.30
2018-12-16T22:34:33.042Z,45.73
2018-12-16T22:37:02.640Z,45.63
2018-12-16T22:39:32.381Z,50.80
2018-12-16T22:42:01.590Z,49.90
2018-12-16T22:44:30.926Z,44.93
2018-12-16T22:46:59.819Z,47.03
2018-12-16T22:49:29.589Z,48.60
2018-12-16T22:51:58.992Z,49.47
2018-12-16T22:54:28.226Z,54.50
2018-12-16T22:56:57.429Z,49.27
2018-12-16T22:59:27.422Z,53.27
2018-12-16T23:01:56.501Z,47.33
2018-12-16T23:04:26.306Z,40.07
2018-12-16T23:06:56.096Z,48.70
2018-12-16T23:09:25.693Z,45.17
2018-12-16T23:11:55.487Z,49.83
2018-12-16T23:14:25.213Z,45.77
2018-12-16T23:16:55.306Z,52.43
2018-12-16T23:19:25.050Z,47.80
2018-12-16T23:21:56.250Z,46.90
2018-12-16T23:24:26.863Z,51.37
2018-12-16T23:26:56.181Z,53.53
2018-12-16T23:29:26.041Z,52.87
2018-12-16T23:31:55.653Z,55.97
2018-12-16T23:34:25.478Z,49.33
2018-12-16T23:36:55.377Z,54.43
2018-12-16T23:39:24.683Z,57.10
2018-12-16T23:41:53.988Z,58.43
2018-12-16T23:44:23.316Z,47.43
2018-12-16T23:46:52.635Z,56.47
2018-12-16T23:49:21.963Z,56.67
2018-12-16T23:51:51.497Z,48.67
2018-12-16T23:54:20.775Z,58.77
2018-12-16T23:56:49.854Z,53.70
2018-12-16T23:59:18.731Z,64.30
